createdAt,value
2022-08-04T00:00:07.205Z,2.10
2022-08-04T00:02:45.361Z,2.40
2022-08-04T00:05:24.383Z,2.13
2022-08-04T00:08:05.758Z,2.23
2022-08-04T00:10:35.871Z,2.03
2022-08-04T00:13:05.514Z,2.43
2022-08-04T00:15:34.875Z,2.30
2022-08-04T00:18:05.892Z,2.27
2022-08-04T00:20:38.948Z,2.57
2022-08-04T00:23:07.687Z,2.20
2022-08-04T00:25:35.946Z,2.40
2022-08-04T00:28:03.905Z,1.70
2022-08-04T00:30:32.241Z,2.10
2022-08-04T00:33:01.337Z,2.00
2022-08-04T00:35:30.182Z,1.87
2022-08-04T00:38:00.575Z,2.37
2022-08-04T00:40:36.597Z,2.20
2022-08-04T00:43:22.676Z,2.53
2022-08-04T00:46:24.239Z,2.40
2022-08-04T00:49:04.264Z,2.20
2022-08-04T00:51:45.184Z,2.40
2022-08-04T00:54:24.533Z,2.80
2022-08-04T00:57:33.501Z,2.10
2022-08-04T01:00:07.560Z,2.13
2022-08-04T01:02:40.644Z,1.97
2022-08-04T01:05:19.366Z,1.90
2022-08-04T01:08:22.115Z,2.23
2022-08-04T01:11:03.082Z,2.40
2022-08-04T01:13:48.609Z,1.70
2022-08-04T01:16:19.063Z,2.80
2022-08-04T01:18:53.655Z,2.27
2022-08-04T01:21:47.580Z,2.50
2022-08-04T01:24:31.171Z,2.07
2022-08-04T01:27:04.827Z,2.47
2022-08-04T01:29:46.942Z,1.97
2022-08-04T01:32:25.844Z,2.70
2022-08-04T01:35:00.035Z,2.17
2022-08-04T01:37:42.725Z,2.13
2022-08-04T01:40:14.258Z,2.60
2022-08-04T01:42:45.465Z,2.40
2022-08-04T01:45:16.634Z,2.40
2022-08-04T01:47:51.717Z,2.17
2022-08-04T01:50:20.166Z,2.57
2022-08-04T01:52:51.154Z,2.53
2022-08-04T01:55:20.146Z,2.17
2022-08-04T01:57:49.812Z,2.13
2022-08-04T02:00:20.680Z,2.37
2022-08-04T02:02:50.145Z,2.03
2022-08-04T02:05:21.171Z,2.37
2022-08-04T02:08:08.526Z,2.00
2022-08-04T02:10:51.730Z,2.10
2022-08-04T02:13:24.874Z,2.20
2022-08-04T02:16:05.657Z,2.30
2022-08-04T02:18:41.301Z,2.83
2022-08-04T02:21:09.839Z,2.33
2022-08-04T02:23:40.877Z,2.90
2022-08-04T02:26:19.290Z,2.23
2022-08-04T02:29:04.520Z,2.63
2022-08-04T02:31:37.217Z,2.50
2022-08-04T02:34:09.486Z,2.60
2022-08-04T02:36:41.014Z,2.30
2022-08-04T02:39:10.500Z,2.50
2022-08-04T02:41:40.059Z,2.43
2022-08-04T02:44:10.518Z,2.10
2022-08-04T02:46:41.494Z,2.70
2022-08-04T02:49:11.239Z,2.07
2022-08-04T02:51:42.352Z,2.43
2022-08-04T02:54:10.382Z,2.80
2022-08-04T02:56:40.589Z,2.70
2022-08-04T02:59:10.424Z,2.10
2022-08-04T03:01:57.051Z,2.40
2022-08-04T03:04:44.288Z,2.23
2022-08-04T03:07:51.086Z,2.63
2022-08-04T03:10:51.730Z,2.13
2022-08-04T03:13:39.016Z,2.40
2022-08-04T03:16:33.490Z,2.80
2022-08-04T03:19:36.897Z,2.17
2022-08-04T03:22:26.174Z,2.47
2022-08-04T03:25:31.098Z,2.50
2022-08-04T03:28:29.143Z,2.63
2022-08-04T03:31:25.344Z,3.00
2022-08-04T03:34:23.650Z,2.57
2022-08-04T03:37:30.205Z,2.40
2022-08-04T03:40:29.770Z,2.23
2022-08-04T03:43:58.165Z,2.50
2022-08-04T03:46:45.570Z,2.20
2022-08-04T03:49:43.539Z,2.50
2022-08-04T03:52:54.291Z,2.67
2022-08-04T03:55:56.474Z,2.57
2022-08-04T03:58:48.725Z,2.67
2022-08-04T04:01:41.626Z,2.90
2022-08-04T04:04:51.848Z,2.80
2022-08-04T04:08:12.576Z,3.13
2022-08-04T04:11:22.513Z,2.57
2022-08-04T04:14:12.674Z,2.60
2022-08-04T04:16:58.268Z,2.80
2022-08-04T04:20:04.443Z,3.07
2022-08-04T04:23:00.365Z,2.97
2022-08-04T04:25:42.515Z,2.90
2022-08-04T04:28:44.832Z,3.53
2022-08-04T04:31:35.914Z,2.50
2022-08-04T04:34:16.178Z,2.63
2022-08-04T04:36:56.061Z,2.70
2022-08-04T04:39:33.527Z,2.50
2022-08-04T04:42:17.623Z,2.10
2022-08-04T04:45:04.153Z,2.70
2022-08-04T04:48:07.348Z,2.23
2022-08-04T04:50:41.023Z,2.43
2022-08-04T04:53:18.037Z,2.80
2022-08-04T04:55:54.132Z,2.43
2022-08-04T04:58:25.043Z,2.20
2022-08-04T05:01:19.698Z,2.30
2022-08-04T05:04:03.671Z,2.80
2022-08-04T05:06:46.365Z,2.80
2022-08-04T05:09:47.279Z,3.20
2022-08-04T05:14:31.471Z,3.00
2022-08-04T05:15:41.031Z,2.60
2022-08-04T05:18:13.347Z,2.50
2022-08-04T05:20:45.086Z,2.73
2022-08-04T05:23:18.123Z,2.47
2022-08-04T05:25:58.674Z,2.60
2022-08-04T05:28:34.185Z,3.20
2022-08-04T05:31:07.371Z,2.20
2022-08-04T05:33:42.806Z,2.03
2022-08-04T05:36:24.926Z,2.40
2022-08-04T05:39:06.163Z,2.77
2022-08-04T05:41:45.586Z,2.90
2022-08-04T05:44:24.789Z,2.40
2022-08-04T05:46:57.129Z,2.57
2022-08-04T05:49:26.267Z,2.50
2022-08-04T05:51:56.811Z,3.07
2022-08-04T05:54:26.198Z,2.67
2022-08-04T05:56:55.965Z,2.50
2022-08-04T05:59:25.707Z,2.27
2022-08-04T06:01:58.034Z,2.87
2022-08-04T06:04:32.119Z,3.00
2022-08-04T06:07:00.138Z,3.20
2022-08-04T06:09:28.247Z,2.73
2022-08-04T06:12:03.544Z,3.40
2022-08-04T06:14:38.177Z,2.43
2022-08-04T06:18:33.651Z,2.90
2022-08-04T06:20:17.805Z,2.43
2022-08-04T06:22:53.536Z,3.00
2022-08-04T06:25:24.793Z,3.07
2022-08-04T06:27:53.331Z,2.90
2022-08-04T06:30:26.074Z,2.63
2022-08-04T06:33:03.833Z,2.37
2022-08-04T06:35:34.118Z,2.80
2022-08-04T06:38:03.773Z,2.73
2022-08-04T06:40:34.575Z,2.60
2022-08-04T06:43:03.860Z,2.83
2022-08-04T06:45:34.255Z,2.90
2022-08-04T06:48:04.628Z,2.60
2022-08-04T06:51:24.365Z,2.57
2022-08-04T06:53:21.601Z,2.80
2022-08-04T06:55:50.518Z,2.87
2022-08-04T06:58:20.302Z,3.00
2022-08-04T07:00:49.547Z,3.00
2022-08-04T07:03:21.748Z,2.40
2022-08-04T07:05:51.456Z,2.70
2022-08-04T07:08:20.186Z,2.93
2022-08-04T07:10:48.331Z,2.50
2022-08-04T07:13:17.964Z,3.00
2022-08-04T07:15:47.651Z,2.63
2022-08-04T07:18:15.583Z,2.80
2022-08-04T07:20:46.149Z,2.80
2022-08-04T07:23:17.801Z,2.90
2022-08-04T07:26:00.829Z,2.90
2022-08-04T07:28:40.796Z,2.50
2022-08-04T07:31:32.449Z,2.53
2022-08-04T07:34:17.043Z,2.30
2022-08-04T07:36:52.922Z,3.00
2022-08-04T07:39:28.095Z,2.40
2022-08-04T07:41:58.932Z,2.60
2022-08-04T07:44:27.586Z,2.37
2022-08-04T07:46:55.837Z,2.17
2022-08-04T07:49:55.250Z,2.17
2022-08-04T07:52:13.741Z,2.20
2022-08-04T07:54:43.312Z,2.80
2022-08-04T07:57:19.691Z,2.47
2022-08-04T07:59:59.398Z,2.70
2022-08-04T08:02:28.181Z,2.80
2022-08-04T08:04:56.270Z,2.60
2022-08-04T08:07:25.634Z,2.37
2022-08-04T08:09:53.502Z,2.50
2022-08-04T08:12:38.285Z,2.10
2022-08-04T08:15:13.325Z,2.10
2022-08-04T08:17:59.993Z,2.37
2022-08-04T08:20:30.626Z,1.93
2022-08-04T08:23:01.924Z,2.50
2022-08-04T08:25:31.631Z,2.40
2022-08-04T08:28:00.016Z,2.03
2022-08-04T08:30:31.537Z,2.00
2022-08-04T08:33:02.419Z,2.20
2022-08-04T08:35:46.912Z,2.10
2022-08-04T08:38:29.829Z,2.10
2022-08-04T08:41:13.667Z,2.30
2022-08-04T08:44:04.639Z,1.73
2022-08-04T08:47:05.474Z,1.97
2022-08-04T08:50:17.685Z,2.50
2022-08-04T08:53:08.119Z,2.60
2022-08-04T08:55:50.043Z,2.17
2022-08-04T08:58:39.705Z,2.07
2022-08-04T09:01:17.233Z,2.40
2022-08-04T09:04:11.393Z,2.37
2022-08-04T09:07:24.505Z,1.90
2022-08-04T09:10:07.114Z,2.20
2022-08-04T09:12:45.260Z,2.03
2022-08-04T09:15:16.382Z,2.20
2022-08-04T09:17:49.677Z,2.03
2022-08-04T09:20:26.161Z,1.73
2022-08-04T09:23:06.705Z,1.90
2022-08-04T09:25:41.549Z,1.60
2022-08-04T09:28:43.636Z,2.10
2022-08-04T09:31:12.561Z,1.80
2022-08-04T09:33:48.943Z,1.60
2022-08-04T09:36:27.205Z,2.50
2022-08-04T09:39:07.437Z,1.77
2022-08-04T09:41:59.823Z,2.80
2022-08-04T09:44:52.325Z,1.83
2022-08-04T09:47:39.716Z,1.63
2022-08-04T09:50:19.785Z,1.83
2022-08-04T09:52:55.423Z,2.40
2022-08-04T09:55:38.458Z,1.90
2022-08-04T09:58:34.809Z,1.57
2022-08-04T10:01:07.805Z,1.50
2022-08-04T10:03:39.001Z,2.00
2022-08-04T10:06:21.782Z,1.70
2022-08-04T10:09:15.525Z,1.80
2022-08-04T10:11:56.232Z,1.87
2022-08-04T10:14:47.257Z,1.80
2022-08-04T10:17:33.455Z,2.10
2022-08-04T10:20:09.558Z,2.00
2022-08-04T10:23:02.337Z,1.93
2022-08-04T10:26:06.250Z,1.97
2022-08-04T10:28:29.893Z,2.10
2022-08-04T10:31:02.235Z,2.00
2022-08-04T10:33:39.634Z,2.10
2022-08-04T10:36:10.583Z,2.00
2022-08-04T10:38:47.053Z,1.83
2022-08-04T10:41:25.320Z,2.00
2022-08-04T10:44:06.934Z,1.93
2022-08-04T10:46:41.694Z,1.90
2022-08-04T10:49:22.663Z,2.37
2022-08-04T10:51:58.982Z,1.70
2022-08-04T10:54:32.388Z,1.73
2022-08-04T10:57:05.644Z,2.40
2022-08-04T10:59:47.087Z,2.27
2022-08-04T11:02:28.028Z,1.90
2022-08-04T11:05:07.515Z,1.87
2022-08-04T11:07:38.617Z,1.60
2022-08-04T11:10:08.891Z,1.70
2022-08-04T11:12:39.068Z,1.80
2022-08-04T11:15:11.995Z,2.07
2022-08-04T11:17:42.681Z,2.07
2022-08-04T11:20:34.577Z,1.77
2022-08-04T11:23:09.067Z,1.80
2022-08-04T11:25:48.489Z,2.10
2022-08-04T11:28:32.375Z,1.80
2022-08-04T11:31:08.889Z,2.27
2022-08-04T11:33:44.185Z,1.90
2022-08-04T11:36:21.063Z,1.70
2022-08-04T11:38:57.700Z,1.83
2022-08-04T11:41:38.751Z,1.80
2022-08-04T11:44:12.558Z,1.80
2022-08-04T11:46:43.898Z,1.70
2022-08-04T11:49:17.438Z,1.90
2022-08-04T11:51:47.614Z,1.97
2022-08-04T11:54:16.709Z,2.17
2022-08-04T11:56:44.878Z,1.73
2022-08-04T11:59:12.743Z,1.93
2022-08-04T12:01:58.094Z,1.93
2022-08-04T12:04:35.648Z,1.70
2022-08-04T12:10:15.198Z,1.60
2022-08-04T12:12:49.336Z,1.77
2022-08-04T12:15:24.382Z,1.77
2022-08-04T12:18:00.450Z,1.95
2022-08-04T12:20:40.471Z,1.60
2022-08-04T12:23:16.401Z,1.73
2022-08-04T12:25:48.099Z,1.90
2022-08-04T12:28:23.401Z,1.80
2022-08-04T12:31:01.372Z,1.77
2022-08-04T12:34:05.324Z,1.93
2022-08-04T12:36:36.127Z,2.00
2022-08-04T12:39:11.396Z,2.00
2022-08-04T12:41:43.152Z,1.90
2022-08-04T12:44:33.381Z,1.97
2022-08-04T12:47:27.402Z,2.10
2022-08-04T12:50:00.756Z,1.90
2022-08-04T12:52:59.250Z,1.90
2022-08-04T12:55:24.353Z,2.00
2022-08-04T12:57:53.574Z,2.07
2022-08-04T13:00:29.574Z,1.60
2022-08-04T13:03:05.546Z,1.50
2022-08-04T13:05:39.873Z,1.75
2022-08-04T13:08:09.324Z,1.57
2022-08-04T13:10:42.364Z,2.05
2022-08-04T13:13:16.949Z,1.88
2022-08-04T13:15:47.175Z,1.58
2022-08-04T13:18:29.697Z,1.70
2022-08-04T13:21:19.469Z,1.70
2022-08-04T13:24:19.925Z,1.70
2022-08-04T13:26:54.778Z,1.70
2022-08-04T13:30:00.304Z,1.70
2022-08-04T13:32:17.577Z,1.70
2022-08-04T13:34:49.164Z,1.73
2022-08-04T13:37:26.447Z,2.03
2022-08-04T13:39:56.691Z,2.07
2022-08-04T13:42:28.029Z,1.87
2022-08-04T13:44:59.453Z,1.63
2022-08-04T13:47:33.376Z,1.80
2022-08-04T13:50:17.670Z,1.50
2022-08-04T13:52:47.846Z,1.57
2022-08-04T13:55:28.209Z,1.43
2022-08-04T13:58:06.058Z,1.53
2022-08-04T14:00:45.025Z,1.20
2022-08-04T14:03:24.776Z,1.60
2022-08-04T14:06:16.182Z,1.60
2022-08-04T14:08:50.105Z,1.52
2022-08-04T14:12:10.731Z,1.60
2022-08-04T14:14:18.439Z,1.50
2022-08-04T14:17:00.840Z,1.43
2022-08-04T14:19:36.068Z,1.30
2022-08-04T14:22:05.470Z,1.57
2022-08-04T14:24:33.280Z,1.20
2022-08-04T14:27:01.766Z,1.55
2022-08-04T14:29:39.396Z,1.48
2022-08-04T14:32:12.680Z,1.10
2022-08-04T14:34:45.125Z,1.53
2022-08-04T14:37:19.429Z,1.33
2022-08-04T14:40:19.252Z,1.53
2022-08-04T14:42:42.524Z,1.20
2022-08-04T14:45:13.019Z,1.50
2022-08-04T14:47:52.963Z,1.60
2022-08-04T14:50:22.753Z,1.23
2022-08-04T14:52:50.597Z,1.03
2022-08-04T14:55:21.208Z,1.50
2022-08-04T14:58:35.854Z,1.23
2022-08-04T15:00:38.969Z,1.63
2022-08-04T15:03:08.959Z,1.63
2022-08-04T15:06:00.269Z,1.90
2022-08-04T15:08:29.198Z,1.43
2022-08-04T15:11:02.493Z,1.60
2022-08-04T15:13:30.723Z,1.70
2022-08-04T15:16:07.576Z,1.73
2022-08-04T15:18:37.432Z,1.70
2022-08-04T15:21:06.586Z,1.40
2022-08-04T15:23:39.524Z,1.80
2022-08-04T15:26:09.618Z,1.37
2022-08-04T15:28:40.807Z,1.63
2022-08-04T15:32:04.506Z,1.73
2022-08-04T15:33:59.643Z,1.57
2022-08-04T15:36:35.620Z,1.70
2022-08-04T15:39:09.769Z,1.77
2022-08-04T15:41:55.332Z,1.93
2022-08-04T15:44:59.917Z,1.80
2022-08-04T15:47:29.208Z,2.10
2022-08-04T15:50:09.740Z,1.73
2022-08-04T15:53:12.543Z,1.63
2022-08-04T15:55:42.833Z,1.60
2022-08-04T15:58:12.507Z,2.33
2022-08-04T16:01:16.519Z,1.70
2022-08-04T16:03:57.848Z,1.97
2022-08-04T16:06:45.168Z,1.40
2022-08-04T16:09:45.846Z,1.80
2022-08-04T16:12:54.401Z,1.77
2022-08-04T16:15:39.398Z,2.00
2022-08-04T16:18:12.262Z,1.93
2022-08-04T16:20:47.533Z,1.60
2022-08-04T16:24:10.929Z,1.97
2022-08-04T16:26:54.920Z,1.90
2022-08-04T16:29:43.011Z,1.50
2022-08-04T16:32:16.873Z,1.97
2022-08-04T16:34:55.238Z,1.80
2022-08-04T16:37:34.893Z,1.80
2022-08-04T16:40:28.569Z,2.00
2022-08-04T16:43:02.111Z,1.80
2022-08-04T16:45:48.656Z,1.73
2022-08-04T16:48:18.505Z,2.27
2022-08-04T16:50:52.333Z,1.83
2022-08-04T16:54:03.287Z,1.80
2022-08-04T16:56:14.481Z,2.17
2022-08-04T16:58:53.857Z,1.90
2022-08-04T17:01:32.991Z,2.40
2022-08-04T17:04:06.029Z,1.73
2022-08-04T17:06:36.432Z,2.07
2022-08-04T17:09:11.617Z,1.93
2022-08-04T17:11:40.067Z,2.00
2022-08-04T17:14:08.078Z,1.90
2022-08-04T17:16:38.019Z,1.73
2022-08-04T17:19:25.179Z,2.03
2022-08-04T17:22:03.005Z,2.10
2022-08-04T17:24:36.798Z,2.13
2022-08-04T17:28:10.898Z,2.20
2022-08-04T17:29:53.616Z,1.80
2022-08-04T17:32:23.295Z,2.10
2022-08-04T17:34:52.731Z,2.03
2022-08-04T17:37:53.014Z,1.87
2022-08-04T17:40:17.910Z,1.67
2022-08-04T17:42:46.181Z,1.50
2022-08-04T17:45:49.068Z,2.10
2022-08-04T17:48:09.969Z,2.27
2022-08-04T17:50:43.536Z,1.47
2022-08-04T17:53:13.090Z,1.90
2022-08-04T17:55:47.116Z,1.57
2022-08-04T18:01:24.253Z,1.70
2022-08-04T18:03:53.281Z,1.43
2022-08-04T18:06:23.408Z,1.83
2022-08-04T18:08:57.859Z,1.60
2022-08-04T18:11:34.809Z,1.70
2022-08-04T18:14:09.650Z,1.57
2022-08-04T18:16:44.095Z,1.50
2022-08-04T18:19:13.019Z,1.70
2022-08-04T18:21:46.808Z,1.50
2022-08-04T18:24:35.565Z,1.50
2022-08-04T18:27:19.088Z,1.50
2022-08-04T18:30:15.472Z,1.40
2022-08-04T18:32:35.636Z,1.53
2022-08-04T18:35:05.576Z,1.60
2022-08-04T18:38:05.769Z,1.77
2022-08-04T18:40:26.408Z,1.40
2022-08-04T18:43:00.153Z,1.57
2022-08-04T18:45:34.632Z,1.70
2022-08-04T18:48:14.902Z,1.43
2022-08-04T18:51:10.420Z,1.70
2022-08-04T18:53:34.841Z,1.67
2022-08-04T18:56:04.141Z,1.63
2022-08-04T18:58:35.631Z,2.03
2022-08-04T19:01:13.610Z,1.90
2022-08-04T19:03:44.757Z,2.10
2022-08-04T19:06:16.659Z,1.80
2022-08-04T19:08:53.976Z,2.00
2022-08-04T19:11:37.056Z,2.00
2022-08-04T19:14:13.253Z,1.77
2022-08-04T19:16:46.141Z,1.80
2022-08-04T19:19:15.484Z,1.97
2022-08-04T19:22:01.947Z,1.57
2022-08-04T19:24:35.014Z,1.83
2022-08-04T19:27:08.285Z,2.13
2022-08-04T19:29:41.356Z,2.40
2022-08-04T19:34:59.900Z,1.60
2022-08-04T19:38:01.529Z,1.70
2022-08-04T19:40:16.011Z,1.90
2022-08-04T19:43:14.298Z,1.67
2022-08-04T19:45:45.224Z,1.70
2022-08-04T19:48:18.679Z,1.50
2022-08-04T19:50:47.546Z,1.60
2022-08-04T19:53:18.771Z,1.80
2022-08-04T19:55:49.775Z,2.27
2022-08-04T19:58:19.775Z,1.80
2022-08-04T20:00:55.598Z,1.80
2022-08-04T20:04:10.266Z,2.10
2022-08-04T20:06:11.686Z,2.37
2022-08-04T20:08:48.421Z,1.77
2022-08-04T20:11:17.269Z,2.00
2022-08-04T20:16:35.955Z,2.13
2022-08-04T20:19:06.191Z,2.00
2022-08-04T20:21:53.486Z,1.70
2022-08-04T20:24:38.645Z,1.90
2022-08-04T20:27:14.686Z,2.07
2022-08-04T20:29:43.580Z,1.90
2022-08-04T20:32:19.923Z,2.00
2022-08-04T20:34:48.557Z,2.37
2022-08-04T20:37:16.481Z,1.93
2022-08-04T20:39:44.450Z,1.77
2022-08-04T20:42:12.363Z,1.87
2022-08-04T20:44:42.048Z,2.37
2022-08-04T20:47:10.276Z,1.53
2022-08-04T20:49:43.133Z,2.43
2022-08-04T20:52:16.380Z,1.70
2022-08-04T20:54:48.622Z,1.90
2022-08-04T20:57:17.148Z,1.90
2022-08-04T20:59:59.576Z,2.00
2022-08-04T21:02:29.778Z,1.70
2022-08-04T21:04:58.923Z,1.67
2022-08-04T21:07:27.229Z,2.17
2022-08-04T21:09:55.308Z,1.80
2022-08-04T21:12:27.238Z,2.40
2022-08-04T21:14:57.783Z,2.07
2022-08-04T21:17:58.742Z,2.20
2022-08-04T21:20:27.218Z,2.33
2022-08-04T21:22:55.786Z,1.93
2022-08-04T21:25:27.578Z,2.00
2022-08-04T21:27:55.361Z,2.23
2022-08-04T21:30:27.093Z,2.17
2022-08-04T21:32:55.709Z,2.00
2022-08-04T21:35:36.871Z,2.17
2022-08-04T21:38:16.401Z,1.93
2022-08-04T21:40:53.550Z,2.20
2022-08-04T21:43:23.636Z,2.40
2022-08-04T21:45:55.999Z,1.80
2022-08-04T21:48:27.327Z,1.87
2022-08-04T21:50:57.157Z,2.10
2022-08-04T21:53:27.660Z,1.97
2022-08-04T21:56:05.445Z,2.13
2022-08-04T21:58:36.243Z,2.23
2022-08-04T22:01:12.615Z,2.07
2022-08-04T22:03:52.351Z,1.60
2022-08-04T22:06:28.438Z,1.87
2022-08-04T22:08:57.426Z,1.90
2022-08-04T22:11:43.897Z,2.33
2022-08-04T22:14:16.547Z,1.87
2022-08-04T22:16:45.333Z,2.10
2022-08-04T22:19:13.924Z,2.00
2022-08-04T22:21:45.314Z,2.40
2022-08-04T22:24:14.832Z,2.10
2022-08-04T22:26:42.715Z,2.23
2022-08-04T22:29:14.420Z,1.80
2022-08-04T22:31:56.164Z,2.23
2022-08-04T22:34:25.423Z,2.10
2022-08-04T22:36:54.577Z,1.73
2022-08-04T22:39:23.502Z,2.50
2022-08-04T22:42:04.157Z,1.80
2022-08-04T22:44:33.328Z,2.00
2022-08-04T22:47:01.885Z,2.10
2022-08-04T22:49:31.269Z,2.23
2022-08-04T22:52:02.887Z,2.10
2022-08-04T22:54:38.001Z,2.27
2022-08-04T22:57:06.173Z,2.03
2022-08-04T22:59:39.884Z,2.37
2022-08-04T23:02:10.880Z,2.20
2022-08-04T23:04:38.944Z,2.20
2022-08-04T23:07:09.413Z,2.20
2022-08-04T23:09:49.533Z,2.10
2022-08-04T23:12:27.524Z,2.30
2022-08-04T23:14:56.652Z,2.20
2022-08-04T23:17:25.454Z,2.10
2022-08-04T23:19:58.795Z,1.90
2022-08-04T23:22:42.049Z,1.80
2022-08-04T23:25:15.712Z,2.50
2022-08-04T23:27:50.614Z,2.20
2022-08-04T23:30:21.864Z,1.90
2022-08-04T23:32:52.806Z,2.63
2022-08-04T23:35:22.041Z,1.93
2022-08-04T23:37:56.746Z,2.47
2022-08-04T23:40:32.482Z,1.73
2022-08-04T23:43:01.844Z,2.10
2022-08-04T23:46:03.896Z,2.33
2022-08-04T23:48:20.807Z,2.20
2022-08-04T23:50:49.210Z,2.40
2022-08-04T23:53:22.495Z,2.20
2022-08-04T23:55:50.682Z,2.10
2022-08-04T23:58:20.943Z,2.00
